Time;durP1;ratioP1;P1;durP2;ratioP2;P2;SDS_P1;SDS_P2;PMS_P1;PMS_P2;Temp;Humidity;BMP_temperature;BMP_pressure;BME280_temperature;BME280_humidity;BME280_pressure;Samples;Min_cycle;Max_cycle;Signal;HPM_P1;HPM_P2
2023/01/16 00:00:20;;;;;;;12.75;5.38;;;12.20;96.70;;;;;;4979038;28;20053;-76
2023/01/16 00:02:48;;;;;;;16.20;7.18;;;12.20;96.70;;;;;;4975939;28;20039;-77
2023/01/16 00:05:16;;;;;;;18.15;9.25;;;12.20;96.70;;;;;;4973379;28;20042;-77
2023/01/16 00:07:44;;;;;;;24.10;10.85;;;12.20;96.70;;;;;;4978242;28;20053;-76
2023/01/16 00:10:12;;;;;;;12.65;6.00;;;12.20;96.70;;;;;;4977328;28;20057;-77
2023/01/16 00:12:40;;;;;;;11.02;4.20;;;12.20;96.70;;;;;;4971483;28;20562;-76
2023/01/16 00:15:10;;;;;;;8.90;3.45;;;12.20;96.70;;;;;;4973463;28;20042;-77
2023/01/16 00:17:40;;;;;;;13.10;3.65;;;12.20;96.70;;;;;;4966910;28;20047;-77
2023/01/16 00:20:10;;;;;;;10.85;3.50;;;12.20;96.70;;;;;;4970576;28;20055;-76
2023/01/16 00:22:38;;;;;;;8.65;2.42;;;12.30;96.70;;;;;;4967974;28;20050;-76
2023/01/16 00:25:07;;;;;;;13.02;3.03;;;12.30;96.70;;;;;;4975220;28;20042;-77
2023/01/16 00:27:35;;;;;;;11.95;3.50;;;12.20;96.70;;;;;;4971471;28;20057;-78
2023/01/16 00:30:05;;;;;;;8.30;2.88;;;12.20;96.70;;;;;;4978819;28;20492;-77
2023/01/16 00:32:34;;;;;;;9.52;2.45;;;12.20;96.70;;;;;;4973325;28;20058;-76
2023/01/16 00:35:02;;;;;;;11.30;2.63;;;12.20;96.70;;;;;;4972563;28;20386;-77
2023/01/16 00:37:30;;;;;;;9.98;2.88;;;12.10;96.70;;;;;;4972561;28;20044;-76
2023/01/16 00:39:58;;;;;;;7.07;2.90;;;12.10;96.70;;;;;;4985084;28;20042;-76
2023/01/16 00:42:26;;;;;;;5.40;2.28;;;12.00;96.70;;;;;;4979354;28;20499;-76
2023/01/16 00:44:54;;;;;;;8.27;2.50;;;12.00;96.70;;;;;;4971419;28;20416;-76
2023/01/16 00:47:22;;;;;;;10.57;3.45;;;12.00;96.70;;;;;;4973072;28;20055;-76
2023/01/16 00:49:52;;;;;;;7.72;2.75;;;11.90;96.70;;;;;;4967511;28;20070;-76
2023/01/16 00:52:20;;;;;;;11.02;2.75;;;11.90;96.70;;;;;;4977312;28;20054;-76
2023/01/16 00:54:48;;;;;;;8.32;2.53;;;11.90;96.70;;;;;;4977519;28;20093;-76
2023/01/16 00:57:16;;;;;;;7.55;2.03;;;11.80;96.70;;;;;;4980677;28;20047;-77
2023/01/16 00:59:44;;;;;;;6.60;1.83;;;11.80;96.70;;;;;;4983735;28;20054;-77
2023/01/16 01:02:13;;;;;;;6.85;2.40;;;11.80;96.70;;;;;;4970610;28;20735;-76
2023/01/16 01:04:41;;;;;;;9.07;2.55;;;11.90;96.70;;;;;;4973713;28;20452;-76
2023/01/16 01:07:11;;;;;;;9.48;2.00;;;11.80;96.70;;;;;;4975754;28;20488;-77
2023/01/16 01:09:39;;;;;;;7.85;2.38;;;11.80;96.70;;;;;;4973148;28;20050;-76
2023/01/16 01:12:07;;;;;;;8.48;3.05;;;11.70;96.70;;;;;;4982159;28;20038;-76
2023/01/16 01:14:35;;;;;;;7.18;2.40;;;11.70;96.70;;;;;;4981019;28;20039;-76
2023/01/16 01:17:04;;;;;;;9.30;1.70;;;11.70;96.70;;;;;;4975085;28;20349;-76
2023/01/16 01:19:32;;;;;;;7.70;1.50;;;11.60;96.70;;;;;;4973244;28;20034;-74
2023/01/16 01:22:00;;;;;;;4.97;1.63;;;11.70;96.70;;;;;;4969893;28;20066;-74
2023/01/16 01:24:29;;;;;;;7.45;1.88;;;11.70;96.70;;;;;;4972770;28;20053;-76
2023/01/16 01:26:57;;;;;;;7.32;1.90;;;11.70;96.70;;;;;;4983487;28;20054;-76
2023/01/16 01:29:26;;;;;;;9.55;2.05;;;11.70;96.70;;;;;;4977209;28;20042;-76
2023/01/16 01:31:54;;;;;;;6.65;1.60;;;11.70;96.70;;;;;;4968399;28;20047;-76
2023/01/16 01:34:22;;;;;;;4.65;1.42;;;11.70;96.70;;;;;;4970137;28;20111;-76
2023/01/16 01:36:50;;;;;;;6.10;2.42;;;11.70;96.70;;;;;;4973541;28;20045;-76
2023/01/16 01:39:18;;;;;;;7.38;1.50;;;11.70;96.70;;;;;;4981859;28;20066;-76
2023/01/16 01:41:48;;;;;;;4.90;1.70;;;11.70;96.70;;;;;;4977346;28;20050;-75
2023/01/16 01:44:49;;;;;;;4.10;1.38;;;11.70;96.70;;;;;;4985283;28;20058;-76
2023/01/16 01:47:22;;;;;;;7.05;2.08;;;11.70;96.70;;;;;;4971013;28;20050;-75
2023/01/16 01:49:51;;;;;;;7.40;1.50;;;11.70;96.70;;;;;;4986575;28;20046;-74
2023/01/16 01:52:20;;;;;;;8.63;2.17;;;11.70;96.70;;;;;;4972927;28;20437;-75
2023/01/16 01:54:52;;;;;;;6.72;2.17;;;11.60;96.70;;;;;;4967094;28;20038;-74
2023/01/16 01:57:26;;;;;;;5.50;1.73;;;11.60;96.70;;;;;;4968523;28;20051;-74
2023/01/16 01:59:59;;;;;;;8.60;1.90;;;11.60;96.70;;;;;;4968841;28;20047;-74
2023/01/16 02:02:33;;;;;;;6.63;1.83;;;11.60;96.70;;;;;;4971491;28;20144;-75
2023/01/16 02:05:06;;;;;;;8.77;1.73;;;11.60;96.70;;;;;;4968049;28;20057;-75
2023/01/16 02:07:35;;;;;;;8.73;1.92;;;11.60;96.70;;;;;;4970253;28;20458;-75
2023/01/16 02:10:10;;;;;;;9.20;2.00;;;11.50;96.70;;;;;;4980550;28;20048;-75
2023/01/16 02:12:43;;;;;;;6.15;1.50;;;11.50;96.70;;;;;;4976264;28;20050;-75
2023/01/16 02:15:12;;;;;;;4.10;1.48;;;11.60;96.70;;;;;;4983505;28;20046;-74
2023/01/16 02:20:38;;;;;;;6.25;1.30;;;11.60;96.70;;;;;;4968039;28;20070;-75
2023/01/16 02:23:46;;;;;;;3.20;1.57;;;11.60;96.70;;;;;;4968534;28;20069;-74
2023/01/16 02:26:50;;;;;;;6.57;1.73;;;11.60;96.70;;;;;;4971627;28;20089;-74
2023/01/16 02:29:51;;;;;;;5.57;1.30;;;11.60;96.70;;;;;;4970570;28;20043;-75
2023/01/16 02:32:31;;;;;;;6.35;1.98;;;11.60;96.70;;;;;;4943934;28;20599;-75
2023/01/16 02:35:26;;;;;;;11.02;2.60;;;11.60;96.70;;;;;;4973768;28;20046;-75
2023/01/16 02:38:00;;;;;;;4.30;1.15;;;11.60;96.70;;;;;;4980356;28;20101;-75
2023/01/16 02:40:39;;;;;;;5.53;1.60;;;11.60;96.70;;;;;;4974369;28;20528;-75
2023/01/16 02:43:19;;;;;;;7.28;1.70;;;11.60;96.70;;;;;;4975469;28;20137;-75
2023/01/16 02:45:54;;;;;;;4.50;1.10;;;11.60;96.70;;;;;;4965992;28;20054;-75
2023/01/16 02:48:28;;;;;;;7.15;1.15;;;11.50;96.70;;;;;;4977821;28;20513;-74
2023/01/16 02:51:03;;;;;;;7.78;1.63;;;11.40;96.70;;;;;;4961063;28;20501;-76
2023/01/16 02:53:37;;;;;;;5.20;1.00;;;11.40;96.70;;;;;;4966648;28;20457;-74
2023/01/16 02:56:08;;;;;;;9.80;1.30;;;11.50;96.70;;;;;;4973676;28;20524;-75
2023/01/16 02:58:39;;;;;;;7.68;1.25;;;11.60;96.70;;;;;;4974002;28;20046;-75
2023/01/16 03:01:09;;;;;;;6.60;0.80;;;11.60;96.70;;;;;;4963480;28;20109;-75
2023/01/16 03:03:41;;;;;;;8.15;1.00;;;11.70;96.70;;;;;;4965379;28;21102;-76
2023/01/16 03:06:39;;;;;;;8.77;0.80;;;11.80;96.70;;;;;;4979615;28;20050;-74
2023/01/16 03:09:23;;;;;;;4.43;1.00;;;11.90;96.70;;;;;;4982192;28;20492;-75
2023/01/16 03:12:03;;;;;;;8.30;1.02;;;12.00;96.70;;;;;;4977896;28;20550;-75
2023/01/16 03:14:38;;;;;;;5.20;0.77;;;12.00;96.70;;;;;;4970701;28;20057;-75
2023/01/16 03:17:21;;;;;;;9.80;1.20;;;11.90;96.70;;;;;;4971089;28;20042;-75
2023/01/16 03:20:08;;;;;;;5.22;0.95;;;11.80;96.70;;;;;;4977728;28;20149;-75
2023/01/16 03:22:41;;;;;;;5.20;1.08;;;11.80;96.70;;;;;;4969047;28;20137;-75
2023/01/16 03:25:26;;;;;;;7.80;1.23;;;11.70;96.70;;;;;;4988304;28;20436;-75
2023/01/16 03:28:04;;;;;;;3.45;0.63;;;11.70;96.70;;;;;;4964460;28;20047;-75
2023/01/16 03:30:41;;;;;;;5.75;0.93;;;11.60;96.70;;;;;;4976428;28;20064;-75
2023/01/16 03:33:19;;;;;;;10.00;1.38;;;11.60;96.70;;;;;;4972847;28;20073;-75
2023/01/16 03:35:53;;;;;;;5.05;1.23;;;11.50;96.70;;;;;;4971827;28;20051;-75
2023/01/16 03:38:24;;;;;;;8.32;2.42;;;11.40;96.70;;;;;;4993560;28;20134;-75
2023/01/16 03:40:54;;;;;;;5.22;1.10;;;11.40;96.70;;;;;;4994892;28;20508;-75
2023/01/16 03:43:26;;;;;;;10.32;1.33;;;11.30;96.70;;;;;;4978652;28;20047;-76
2023/01/16 03:45:58;;;;;;;10.05;1.30;;;11.30;96.70;;;;;;4976691;28;20058;-75
2023/01/16 03:48:33;;;;;;;8.80;1.33;;;11.30;96.70;;;;;;4977961;28;20057;-76
2023/01/16 03:51:06;;;;;;;9.65;1.48;;;11.30;96.70;;;;;;4964709;28;20046;-74
2023/01/16 03:53:39;;;;;;;5.57;1.20;;;11.30;96.70;;;;;;4965523;28;20040;-74
2023/01/16 03:56:13;;;;;;;7.00;1.30;;;11.30;96.70;;;;;;4969151;28;20051;-74
2023/01/16 03:58:52;;;;;;;5.07;1.30;;;11.30;96.70;;;;;;4965632;28;20129;-76
2023/01/16 04:01:26;;;;;;;13.40;1.73;;;11.30;96.70;;;;;;4973979;28;20046;-74
2023/01/16 04:04:00;;;;;;;5.82;1.05;;;11.20;96.70;;;;;;4979755;28;20221;-75
2023/01/16 04:06:35;;;;;;;5.28;1.15;;;11.20;96.70;;;;;;4977264;28;20093;-74
2023/01/16 04:09:08;;;;;;;4.57;1.10;;;11.10;96.70;;;;;;4976864;28;20141;-75
2023/01/16 04:11:38;;;;;;;6.63;1.20;;;11.10;96.70;;;;;;4974258;28;20066;-74
2023/01/16 04:14:09;;;;;;;7.05;1.10;;;11.10;96.70;;;;;;4979422;28;20617;-75
2023/01/16 04:16:39;;;;;;;6.13;1.13;;;11.10;96.70;;;;;;4973324;28;20475;-75
2023/01/16 04:19:11;;;;;;;5.97;1.33;;;11.10;96.70;;;;;;4966213;28;20058;-74
2023/01/16 04:21:46;;;;;;;5.63;1.20;;;11.00;96.70;;;;;;4976725;28;20064;-76
2023/01/16 04:24:16;;;;;;;5.80;1.33;;;10.90;96.70;;;;;;4991170;28;20050;-75
2023/01/16 04:26:44;;;;;;;5.40;1.30;;;10.90;96.70;;;;;;4977636;28;20097;-76
2023/01/16 04:29:12;;;;;;;5.63;1.38;;;10.80;96.70;;;;;;4972645;28;20915;-75
2023/01/16 04:31:40;;;;;;;7.10;1.42;;;10.70;96.70;;;;;;4975703;28;20053;-75
2023/01/16 04:34:08;;;;;;;8.93;1.50;;;10.70;96.70;;;;;;4969892;28;20047;-75
2023/01/16 04:36:36;;;;;;;5.75;1.77;;;10.60;96.70;;;;;;4969143;28;20144;-76
2023/01/16 04:39:06;;;;;;;7.40;1.50;;;10.50;96.70;;;;;;4974087;28;20069;-75
2023/01/16 04:41:37;;;;;;;13.57;2.65;;;10.50;96.70;;;;;;4963428;28;20039;-75
2023/01/16 04:44:07;;;;;;;10.75;2.75;;;10.50;96.70;;;;;;4983463;28;20492;-76
2023/01/16 04:46:37;;;;;;;6.47;1.27;;;10.60;96.70;;;;;;4975565;28;20051;-75
2023/01/16 04:49:06;;;;;;;9.57;1.63;;;10.70;96.70;;;;;;4975684;28;20046;-74
2023/01/16 04:51:34;;;;;;;7.72;1.60;;;10.70;96.70;;;;;;4969031;28;20070;-75
2023/01/16 04:54:03;;;;;;;6.45;1.40;;;10.70;96.70;;;;;;4972277;28;20053;-75
2023/01/16 04:56:33;;;;;;;7.28;1.33;;;10.70;96.70;;;;;;4954569;28;20057;-74
2023/01/16 04:59:02;;;;;;;7.55;1.35;;;10.70;96.70;;;;;;4967296;28;20039;-74
2023/01/16 05:01:34;;;;;;;10.23;2.42;;;10.70;96.70;;;;;;4965244;28;20509;-75
2023/01/16 05:04:04;;;;;;;9.77;1.48;;;10.70;96.70;;;;;;4968460;28;20043;-75
2023/01/16 05:06:32;;;;;;;9.07;1.52;;;10.70;96.70;;;;;;4973088;28;20065;-75
2023/01/16 05:09:01;;;;;;;6.80;1.40;;;10.80;96.70;;;;;;4982102;28;20137;-75
2023/01/16 05:11:29;;;;;;;5.82;1.30;;;10.80;96.70;;;;;;4976108;28;20052;-76
2023/01/16 05:13:59;;;;;;;6.18;1.33;;;10.80;96.70;;;;;;4984418;28;20084;-77
2023/01/16 05:16:28;;;;;;;8.77;1.50;;;10.80;96.70;;;;;;4985091;28;20097;-76
2023/01/16 05:18:56;;;;;;;7.38;1.27;;;10.90;96.70;;;;;;4979228;28;20137;-76
2023/01/16 05:21:24;;;;;;;9.57;2.10;;;10.90;96.70;;;;;;4982170;28;20054;-76
2023/01/16 05:23:52;;;;;;;10.55;6.47;;;10.90;96.70;;;;;;4998206;28;20041;-76
2023/01/16 05:26:20;;;;;;;10.23;4.75;;;11.00;96.70;;;;;;5001073;28;20141;-76
2023/01/16 05:28:48;;;;;;;11.50;3.40;;;11.00;96.70;;;;;;4974168;28;20153;-75
2023/01/16 05:31:19;;;;;;;11.38;3.85;;;11.00;96.70;;;;;;4971519;28;20051;-77
2023/01/16 05:33:47;;;;;;;11.90;2.97;;;11.00;96.70;;;;;;4965016;28;20394;-78
2023/01/16 05:36:15;;;;;;;10.38;2.67;;;10.90;96.70;;;;;;4985546;28;20113;-76
2023/01/16 05:38:43;;;;;;;11.65;2.95;;;10.90;96.70;;;;;;4999105;28;20052;-76
2023/01/16 05:41:11;;;;;;;8.48;2.35;;;10.90;96.70;;;;;;4990978;28;20050;-76
2023/01/16 05:43:39;;;;;;;5.68;1.80;;;10.80;96.70;;;;;;4979105;28;20046;-77
2023/01/16 05:46:07;;;;;;;15.80;2.75;;;10.80;96.70;;;;;;4985060;28;20126;-77
2023/01/16 05:48:38;;;;;;;6.03;1.80;;;10.80;96.70;;;;;;4977206;28;20070;-76
2023/01/16 05:51:06;;;;;;;7.40;1.90;;;10.70;96.70;;;;;;4983621;28;20076;-76
2023/01/16 05:53:34;;;;;;;6.80;1.80;;;10.70;96.70;;;;;;4991554;28;20046;-75
2023/01/16 05:56:07;;;;;;;8.48;1.65;;;10.70;96.70;;;;;;4980682;28;20053;-77
2023/01/16 05:58:35;;;;;;;7.22;1.40;;;10.60;96.70;;;;;;4979054;28;20504;-76
2023/01/16 06:01:04;;;;;;;7.07;2.00;;;10.60;96.70;;;;;;4975142;28;20042;-76
2023/01/16 06:03:32;;;;;;;6.38;1.80;;;10.60;96.70;;;;;;4972790;28;20042;-76
2023/01/16 06:06:02;;;;;;;7.35;1.50;;;10.60;96.70;;;;;;4974227;28;20042;-76
2023/01/16 06:08:31;;;;;;;6.53;1.42;;;10.60;96.70;;;;;;4983575;28;20065;-77
2023/01/16 06:11:00;;;;;;;5.40;1.60;;;10.60;96.70;;;;;;4982589;28;20050;-76
2023/01/16 06:13:28;;;;;;;8.52;1.38;;;10.60;96.70;;;;;;4984243;28;20471;-76
2023/01/16 06:15:57;;;;;;;6.00;1.83;;;10.50;96.70;;;;;;4983242;28;20077;-76
2023/01/16 06:18:25;;;;;;;5.47;1.63;;;10.50;96.70;;;;;;4984151;28;20046;-77
2023/01/16 06:20:53;;;;;;;9.65;2.08;;;10.50;96.70;;;;;;4981719;28;20066;-76
2023/01/16 06:23:22;;;;;;;10.25;2.95;;;10.50;96.70;;;;;;4978915;28;20049;-75
2023/01/16 06:25:50;;;;;;;7.07;1.92;;;10.50;96.70;;;;;;4968780;28;20169;-75
2023/01/16 06:28:18;;;;;;;8.82;2.20;;;10.50;96.70;;;;;;4981790;28;20047;-75
2023/01/16 06:30:51;;;;;;;7.63;2.15;;;10.50;96.70;;;;;;4982796;28;20046;-76
2023/01/16 06:33:20;;;;;;;6.82;2.13;;;10.50;96.70;;;;;;4974967;28;20058;-75
2023/01/16 06:35:48;;;;;;;8.20;1.75;;;10.50;96.70;;;;;;4997452;28;20137;-77
2023/01/16 06:38:16;;;;;;;7.10;1.52;;;10.50;96.70;;;;;;4973105;28;20042;-76
2023/01/16 06:40:46;;;;;;;9.68;1.80;;;10.50;96.70;;;;;;4976346;28;20050;-75
2023/01/16 06:43:16;;;;;;;12.32;2.60;;;10.50;96.70;;;;;;4981401;28;20042;-76
2023/01/16 06:45:45;;;;;;;13.50;3.85;;;10.40;96.70;;;;;;4965888;28;20068;-77
2023/01/16 06:48:13;;;;;;;12.40;3.53;;;10.30;96.70;;;;;;4976253;28;20525;-77
2023/01/16 06:50:41;;;;;;;12.80;3.60;;;10.30;96.70;;;;;;4978362;28;20050;-76
2023/01/16 06:53:09;;;;;;;12.13;4.50;;;10.30;96.70;;;;;;4977892;28;20046;-76
2023/01/16 06:55:37;;;;;;;18.27;8.48;;;10.30;96.70;;;;;;4982481;28;20431;-76
2023/01/16 06:58:07;;;;;;;13.95;6.50;;;10.30;96.70;;;;;;4965077;28;20492;-77
2023/01/16 07:00:35;;;;;;;16.77;5.97;;;10.30;96.70;;;;;;4966192;28;20058;-75
2023/01/16 07:03:03;;;;;;;15.05;6.70;;;10.30;96.70;;;;;;4981876;28;20049;-77
2023/01/16 07:05:32;;;;;;;18.05;7.35;;;10.30;96.70;;;;;;4982029;28;20038;-76
2023/01/16 07:08:00;;;;;;;12.63;5.65;;;10.30;96.70;;;;;;4982008;28;20038;-75
2023/01/16 07:10:29;;;;;;;15.10;6.07;;;10.40;96.70;;;;;;4972542;28;20078;-76
2023/01/16 07:12:57;;;;;;;19.67;6.68;;;10.40;96.70;;;;;;4963330;28;20046;-76
2023/01/16 07:23:53;;;;;;;13.00;5.50;;;10.30;96.70;;;;;;4983711;28;20045;-75
2023/01/16 07:26:21;;;;;;;10.10;5.18;;;10.40;96.70;;;;;;4981683;28;20050;-75
2023/01/16 07:28:50;;;;;;;10.48;3.40;;;10.40;96.70;;;;;;4974958;28;20045;-76
2023/01/16 07:31:21;;;;;;;18.73;4.65;;;10.50;96.70;;;;;;4974966;28;20058;-76
2023/01/16 07:33:50;;;;;;;13.05;3.30;;;10.50;96.70;;;;;;4982128;28;20058;-76
2023/01/16 07:36:19;;;;;;;9.45;3.00;;;10.60;96.70;;;;;;4982305;28;20044;-76
2023/01/16 07:38:47;;;;;;;12.80;5.65;;;10.60;96.70;;;;;;4964977;28;20038;-77
2023/01/16 07:41:15;;;;;;;29.35;18.20;;;10.70;96.70;;;;;;4972704;28;20083;-75
2023/01/16 07:43:43;;;;;;;15.85;6.35;;;10.70;96.70;;;;;;4970459;28;20067;-76
2023/01/16 07:46:11;;;;;;;15.32;6.35;;;10.70;96.70;;;;;;4969298;28;20045;-77
2023/01/16 07:48:40;;;;;;;19.23;8.95;;;10.80;96.70;;;;;;4974865;28;20041;-77
2023/01/16 07:51:08;;;;;;;15.90;7.88;;;10.80;96.70;;;;;;4980904;28;20145;-75
2023/01/16 07:53:36;;;;;;;13.85;4.50;;;10.80;96.70;;;;;;4979501;28;20050;-76
2023/01/16 07:56:05;;;;;;;15.20;4.53;;;10.90;96.70;;;;;;4974186;28;20050;-76
2023/01/16 07:58:33;;;;;;;12.50;5.07;;;10.90;96.70;;;;;;4987360;28;20825;-75
2023/01/16 08:01:01;;;;;;;9.82;3.97;;;10.90;96.70;;;;;;4982576;28;20090;-78
2023/01/16 08:03:29;;;;;;;15.50;4.32;;;11.00;96.70;;;;;;4981846;28;20050;-76
2023/01/16 08:05:59;;;;;;;15.43;4.90;;;11.00;96.70;;;;;;4973056;28;20053;-76
2023/01/16 08:08:28;;;;;;;19.00;4.90;;;11.00;96.70;;;;;;4970996;28;20115;-77
2023/01/16 08:10:57;;;;;;;19.63;4.95;;;11.00;96.70;;;;;;4962552;28;20047;-77
2023/01/16 08:13:40;;;;;;;12.90;4.47;;;11.00;96.70;;;;;;4964848;28;20135;-76
2023/01/16 08:16:08;;;;;;;17.42;5.32;;;11.10;96.70;;;;;;4964809;28;20505;-76
2023/01/16 08:18:37;;;;;;;16.23;4.38;;;11.10;96.70;;;;;;4996041;28;20097;-75
2023/01/16 08:21:06;;;;;;;16.40;4.18;;;11.10;96.70;;;;;;4966412;28;20062;-76
2023/01/16 08:23:34;;;;;;;18.88;4.47;;;11.20;96.70;;;;;;4983078;28;20057;-76
2023/01/16 08:26:03;;;;;;;9.55;3.00;;;11.30;96.70;;;;;;4997420;28;20046;-76
2023/01/16 08:28:31;;;;;;;12.18;2.55;;;11.30;96.70;;;;;;4982238;28;20043;-76
2023/01/16 08:31:07;;;;;;;10.13;2.92;;;11.40;96.70;;;;;;4971555;28;20489;-77
2023/01/16 08:33:36;;;;;;;9.80;2.88;;;11.40;96.70;;;;;;4970509;28;20054;-77
2023/01/16 08:36:07;;;;;;;13.45;3.95;;;11.50;96.70;;;;;;4968962;28;20719;-77
2023/01/16 08:38:36;;;;;;;11.90;2.63;;;11.50;96.70;;;;;;4973339;28;20046;-78
2023/01/16 08:41:04;;;;;;;8.95;2.63;;;11.60;96.70;;;;;;4974772;28;20039;-78
2023/01/16 08:52:01;;;;;;;12.20;2.00;;;11.70;96.70;;;;;;4974963;28;20070;-77
2023/01/16 08:54:29;;;;;;;11.27;2.20;;;11.90;96.70;;;;;;4974520;28;20137;-76
2023/01/16 08:56:57;;;;;;;7.85;1.67;;;12.00;96.70;;;;;;4975812;28;20039;-76
2023/01/16 08:59:25;;;;;;;9.55;2.05;;;12.10;96.70;;;;;;4975729;28;20038;-75
2023/01/16 09:01:54;;;;;;;12.32;2.00;;;12.10;96.70;;;;;;4968500;28;20138;-78
2023/01/16 09:04:22;;;;;;;10.23;1.73;;;12.10;96.70;;;;;;4972224;28;20073;-76
2023/01/16 09:06:50;;;;;;;9.88;1.80;;;12.20;96.70;;;;;;4965736;28;20066;-76
2023/01/16 09:09:19;;;;;;;6.00;1.60;;;12.30;96.70;;;;;;4975443;28;20046;-77
2023/01/16 09:14:42;;;;;;;13.13;1.60;;;12.50;96.70;;;;;;4963981;28;20054;-74
2023/01/16 09:17:10;;;;;;;9.95;1.75;;;12.60;96.70;;;;;;4964944;28;20062;-75
2023/01/16 09:19:39;;;;;;;8.93;1.98;;;12.60;96.70;;;;;;4971806;28;20129;-77
2023/01/16 09:22:07;;;;;;;10.43;1.85;;;12.70;96.70;;;;;;4965889;28;20061;-77
2023/01/16 09:24:36;;;;;;;9.18;2.05;;;12.80;96.70;;;;;;4970477;28;20055;-78
2023/01/16 09:27:04;;;;;;;8.70;1.17;;;12.80;96.70;;;;;;4978919;28;20046;-76
2023/01/16 09:29:32;;;;;;;12.52;1.75;;;12.80;96.70;;;;;;4976474;28;20121;-77
2023/01/16 09:32:07;;;;;;;7.95;1.80;;;12.80;96.70;;;;;;4974819;28;20120;-76
2023/01/16 09:34:36;;;;;;;13.63;1.75;;;12.80;96.70;;;;;;4983944;28;20042;-77
2023/01/16 09:37:05;;;;;;;6.40;1.38;;;12.80;96.70;;;;;;4973113;28;20411;-77
2023/01/16 09:39:33;;;;;;;10.98;1.60;;;12.80;96.70;;;;;;4979345;28;20320;-77
2023/01/16 09:45:14;;;;;;;9.80;1.75;;;12.80;96.70;;;;;;4975682;28;20051;-77
2023/01/16 09:47:47;;;;;;;8.45;1.33;;;12.90;96.70;;;;;;4966435;28;20057;-77
2023/01/16 09:50:23;;;;;;;9.23;2.00;;;13.10;96.70;;;;;;4966540;28;20047;-76
2023/01/16 09:58:36;;;;;;;13.05;1.63;;;13.50;96.70;;;;;;4985610;28;20050;-75
2023/01/16 10:01:08;;;;;;;9.77;2.38;;;13.60;96.70;;;;;;4983291;28;20054;-75
2023/01/16 10:03:42;;;;;;;4.47;1.50;;;13.50;96.70;;;;;;4983683;28;20051;-75
2023/01/16 10:06:22;;;;;;;5.80;1.60;;;13.40;96.70;;;;;;4982259;28;20078;-74
2023/01/16 10:09:02;;;;;;;8.98;1.70;;;13.30;96.70;;;;;;4971896;28;20055;-75
2023/01/16 10:11:40;;;;;;;8.85;1.65;;;13.20;96.70;;;;;;4965344;28;20049;-76
2023/01/16 10:14:25;;;;;;;14.40;2.10;;;13.30;96.70;;;;;;4972920;28;20693;-76
2023/01/16 10:17:10;;;;;;;9.25;1.52;;;13.30;96.70;;;;;;4978896;28;20129;-75
2023/01/16 10:19:52;;;;;;;6.85;1.23;;;13.30;96.70;;;;;;4976916;28;20054;-76
2023/01/16 10:22:39;;;;;;;8.15;1.77;;;13.40;96.70;;;;;;4980220;28;20070;-78
2023/01/16 10:25:21;;;;;;;10.35;1.73;;;13.40;96.70;;;;;;4982796;28;20065;-76
2023/01/16 10:28:01;;;;;;;9.70;1.67;;;13.50;96.70;;;;;;4965451;28;20047;-76
2023/01/16 10:30:36;;;;;;;7.95;1.73;;;13.50;96.70;;;;;;4970495;28;20145;-75
2023/01/16 10:33:12;;;;;;;14.27;1.83;;;13.50;96.70;;;;;;4972640;28;20078;-76
2023/01/16 10:35:44;;;;;;;6.30;1.40;;;13.30;96.70;;;;;;4967129;28;20071;-77
2023/01/16 10:38:34;;;;;;;10.50;1.80;;;13.30;96.70;;;;;;4972433;28;20065;-75
2023/01/16 10:49:25;;;;;;;9.95;1.58;;;13.20;96.70;;;;;;4968415;28;20042;-75
2023/01/16 10:49:27;;;;;;;;;;;13.60;96.70;;;;;;4996705;28;20339;-75
2023/01/16 10:51:58;;;;;;;9.68;1.58;;;13.80;96.70;;;;;;4975354;28;20455;-75
2023/01/16 10:54:26;;;;;;;10.07;1.38;;;13.90;96.70;;;;;;4982310;28;20057;-75
2023/01/16 10:56:58;;;;;;;5.28;0.90;;;13.70;96.70;;;;;;4974436;28;20070;-75
2023/01/16 10:59:27;;;;;;;9.68;2.05;;;13.60;96.70;;;;;;4965297;28;20038;-75
2023/01/16 11:02:04;;;;;;;11.00;1.75;;;13.50;96.70;;;;;;4973339;28;20350;-74
2023/01/16 11:04:33;;;;;;;;;;;13.40;96.70;;;;;;4981826;28;20093;-74
2023/01/16 11:07:22;;;;;;;8.65;1.05;;;13.20;96.70;;;;;;4973276;28;20008;-75
2023/01/16 11:09:50;;;;;;;5.28;1.10;;;13.10;96.70;;;;;;4960500;28;20104;-74
2023/01/16 11:18:29;;;;;;;6.05;1.27;;;13.00;96.70;;;;;;4989914;28;20050;-74
2023/01/16 11:21:00;;;;;;;8.98;1.40;;;13.00;96.70;;;;;;4980004;28;20058;-75
2023/01/16 11:23:37;;;;;;;12.82;2.00;;;13.00;96.70;;;;;;4957657;28;20050;-74
2023/01/16 11:26:07;;;;;;;7.43;1.38;;;13.10;96.70;;;;;;4977642;28;20053;-74
2023/01/16 11:28:36;;;;;;;6.20;1.25;;;13.10;96.70;;;;;;4964541;28;20488;-74
2023/01/16 11:31:12;;;;;;;5.95;1.27;;;13.10;96.70;;;;;;4970096;28;20042;-74
2023/01/16 11:33:45;;;;;;;6.38;1.08;;;13.10;96.70;;;;;;4946968;28;20054;-73
2023/01/16 11:36:18;;;;;;;6.22;1.00;;;13.10;96.70;;;;;;4970855;28;20056;-73
2023/01/16 11:38:48;;;;;;;6.20;1.17;;;13.00;96.70;;;;;;4966492;28;20147;-74
2023/01/16 11:41:26;;;;;;;8.60;1.27;;;13.00;96.70;;;;;;4964472;28;20453;-74
2023/01/16 11:47:04;;;;;;;9.00;1.05;;;12.90;96.70;;;;;;4945792;28;20124;-74
2023/01/16 11:49:40;;;;;;;8.55;1.40;;;12.80;96.70;;;;;;4974818;28;20046;-74
2023/01/16 11:52:14;;;;;;;4.45;0.98;;;12.80;96.70;;;;;;4964680;28;20782;-74
2023/01/16 11:54:42;;;;;;;6.85;1.65;;;12.70;96.70;;;;;;4962967;28;20072;-74
2023/01/16 11:57:32;;;;;;;5.85;1.10;;;12.70;96.70;;;;;;4964036;28;20584;-76
2023/01/16 12:00:34;;;;;;;5.97;1.15;;;12.70;96.70;;;;;;4972244;28;20125;-74
2023/01/16 12:03:35;;;;;;;8.20;1.52;;;12.70;96.70;;;;;;4979856;28;20046;-74
2023/01/16 12:06:17;;;;;;;5.13;1.00;;;12.70;96.70;;;;;;4957533;28;20588;-74
2023/01/16 12:09:16;;;;;;;7.85;1.58;;;12.70;96.70;;;;;;4963773;28;20042;-74
2023/01/16 12:14:17;;;;;;;8.23;1.30;;;12.70;96.70;;;;;;4973136;28;20062;-74
2023/01/16 12:15:01;;;;;;;4.60;2.03;;;12.70;96.70;;;;;;4981815;28;20116;-74
2023/01/16 12:17:52;;;;;;;7.55;2.10;;;12.80;96.70;;;;;;4978305;28;20059;-74
2023/01/16 12:20:30;;;;;;;6.90;1.55;;;12.80;96.70;;;;;;4966230;28;20067;-74
2023/01/16 12:23:20;;;;;;;5.43;1.58;;;12.80;96.70;;;;;;4966268;28;20053;-74
2023/01/16 12:25:59;;;;;;;6.93;1.90;;;12.90;96.70;;;;;;4975200;28;20065;-74
2023/01/16 12:28:38;;;;;;;7.97;1.45;;;12.80;96.70;;;;;;4967478;28;20046;-74
2023/01/16 12:31:38;;;;;;;4.40;1.00;;;12.80;96.70;;;;;;4967787;28;20420;-75
2023/01/16 12:34:32;;;;;;;7.72;1.73;;;12.60;96.70;;;;;;4980989;28;20054;-76
2023/01/16 12:37:27;;;;;;;7.88;1.83;;;12.50;96.70;;;;;;4983556;28;20055;-74
2023/01/16 12:40:06;;;;;;;6.45;1.23;;;12.50;96.70;;;;;;4972495;28;20477;-75
2023/01/16 12:45:42;;;;;;;10.68;1.70;;;12.50;96.70;;;;;;4972333;28;20054;-74
2023/01/16 12:48:36;;;;;;;10.32;1.73;;;12.50;96.70;;;;;;4967341;28;20121;-74
2023/01/16 12:51:17;;;;;;;5.97;1.35;;;12.40;96.70;;;;;;4969941;28;20079;-73
2023/01/16 12:54:22;;;;;;;7.90;1.95;;;12.40;96.70;;;;;;4965208;28;20716;-74
2023/01/16 12:57:07;;;;;;;6.05;1.02;;;12.40;96.70;;;;;;4976828;28;20059;-74
2023/01/16 12:59:41;;;;;;;10.68;1.85;;;12.40;96.70;;;;;;4982276;28;20518;-73
2023/01/16 13:02:23;;;;;;;8.15;1.42;;;12.30;96.70;;;;;;4976868;28;20525;-75
2023/01/16 13:04:55;;;;;;;7.18;1.63;;;12.30;96.70;;;;;;4985159;28;20732;-75
2023/01/16 13:07:31;;;;;;;5.93;1.33;;;12.30;96.70;;;;;;4984317;28;20046;-74
2023/01/16 13:13:40;;;;;;;7.40;2.00;;;12.30;96.70;;;;;;4985327;28;20042;-74
2023/01/16 13:15:46;;;;;;;6.00;1.67;;;12.20;96.70;;;;;;4968594;28;20512;-76
2023/01/16 13:18:19;;;;;;;11.55;2.28;;;12.20;96.70;;;;;;4971733;28;20043;-73
2023/01/16 13:20:52;;;;;;;6.93;1.40;;;12.20;96.70;;;;;;4969633;28;20133;-74
2023/01/16 13:23:24;;;;;;;10.25;1.02;;;12.30;96.70;;;;;;4978990;28;20047;-74
2023/01/16 13:25:59;;;;;;;7.63;2.28;;;12.40;96.70;;;;;;4985201;28;20458;-74
2023/01/16 13:28:36;;;;;;;5.18;1.40;;;12.40;96.70;;;;;;4982862;28;20456;-74
2023/01/16 13:31:12;;;;;;;5.32;2.08;;;12.40;96.70;;;;;;4983649;28;20046;-74
2023/01/16 13:33:44;;;;;;;9.00;2.60;;;12.50;96.70;;;;;;4983368;28;20057;-74
2023/01/16 13:36:28;;;;;;;7.63;1.80;;;12.40;96.70;;;;;;4981452;28;20114;-73
2023/01/16 13:39:16;;;;;;;4.68;1.08;;;12.40;96.70;;;;;;4966513;28;20494;-74
2023/01/16 13:41:48;;;;;;;8.23;1.88;;;12.40;96.70;;;;;;4967432;28;20638;-74
2023/01/16 13:47:24;;;;;;;2.58;0.50;;;12.40;96.70;;;;;;4964149;28;20062;-74
2023/01/16 13:49:54;;;;;;;3.70;0.55;;;12.40;96.70;;;;;;4970192;28;20125;-74
2023/01/16 13:52:26;;;;;;;3.30;0.95;;;12.40;96.70;;;;;;4979056;28;20057;-74
2023/01/16 13:54:57;;;;;;;4.70;0.77;;;12.40;96.70;;;;;;4984862;28;20065;-74
2023/01/16 13:57:29;;;;;;;3.85;0.80;;;12.30;96.70;;;;;;4975497;28;20042;-74
2023/01/16 14:00:01;;;;;;;1.80;0.38;;;12.20;96.70;;;;;;4983265;28;20130;-74
2023/01/16 14:02:42;;;;;;;2.92;0.77;;;12.10;96.70;;;;;;4972589;28;20061;-74
2023/01/16 14:05:41;;;;;;;2.33;0.55;;;12.00;96.70;;;;;;4968874;28;20074;-73
2023/01/16 14:09:04;;;;;;;2.35;0.50;;;11.90;96.70;;;;;;4919810;29;20073;-74
2023/01/16 14:11:39;;;;;;;6.65;0.45;;;11.80;96.70;;;;;;4923499;29;20055;-74